sensor_id;sensor_type;location;lat;lon;timestamp;pressure;altitude;pressure_sealevel;temperature;humidity
62928;BME280;51070;52.236;-0.892;2023-02-01T00:00:23;101416.76;;;5.13;78.19
62928;BME280;51070;52.236;-0.892;2023-02-01T00:02:49;101421.91;;;5.13;78.31
62928;BME280;51070;52.236;-0.892;2023-02-01T00:05:14;101420.77;;;5.14;78.15
62928;BME280;51070;52.236;-0.892;2023-02-01T00:07:39;101416.42;;;5.13;78.03
62928;BME280;51070;52.236;-0.892;2023-02-01T00:10:06;101424.45;;;5.13;78.12
62928;BME280;51070;52.236;-0.892;2023-02-01T00:12:32;101419.81;;;5.12;78.19
62928;BME280;51070;52.236;-0.892;2023-02-01T00:14:58;101403.19;;;5.12;78.09
62928;BME280;51070;52.236;-0.892;2023-02-01T00:17:23;101398.09;;;5.13;78.17
62928;BME280;51070;52.236;-0.892;2023-02-01T00:19:49;101398.54;;;5.15;78.13
62928;BME280;51070;52.236;-0.892;2023-02-01T00:22:15;101398.08;;;5.15;78.20
62928;BME280;51070;52.236;-0.892;2023-02-01T00:24:40;101398.63;;;5.16;78.35
62928;BME280;51070;52.236;-0.892;2023-02-01T00:27:05;101398.64;;;5.17;78.29
62928;BME280;51070;52.236;-0.892;2023-02-01T00:29:31;101396.35;;;5.15;78.40
62928;BME280;51070;52.236;-0.892;2023-02-01T00:31:56;101391.84;;;5.15;78.29
62928;BME280;51070;52.236;-0.892;2023-02-01T00:34:22;101404.88;;;5.12;78.38
62928;BME280;51070;52.236;-0.892;2023-02-01T00:36:47;101407.68;;;5.11;78.40
62928;BME280;51070;52.236;-0.892;2023-02-01T00:39:13;101402.77;;;5.09;78.34
62928;BME280;51070;52.236;-0.892;2023-02-01T00:41:39;101400.80;;;5.07;78.69
62928;BME280;51070;52.236;-0.892;2023-02-01T00:44:05;101393.41;;;5.07;78.89
62928;BME280;51070;52.236;-0.892;2023-02-01T00:46:31;101394.80;;;5.07;78.79
62928;BME280;51070;52.236;-0.892;2023-02-01T00:48:57;101390.36;;;5.08;78.76
62928;BME280;51070;52.236;-0.892;2023-02-01T00:51:25;101390.70;;;5.07;78.82
62928;BME280;51070;52.236;-0.892;2023-02-01T00:53:51;101382.42;;;5.06;78.85
62928;BME280;51070;52.236;-0.892;2023-02-01T00:56:17;101381.30;;;5.05;78.85
62928;BME280;51070;52.236;-0.892;2023-02-01T00:58:43;101377.30;;;5.04;78.93
62928;BME280;51070;52.236;-0.892;2023-02-01T01:01:14;101372.20;;;5.02;78.95
62928;BME280;51070;52.236;-0.892;2023-02-01T01:03:46;101365.36;;;5.00;79.01
62928;BME280;51070;52.236;-0.892;2023-02-01T01:06:17;101371.30;;;4.99;79.33
62928;BME280;51070;52.236;-0.892;2023-02-01T01:08:43;101371.20;;;5.00;79.25
62928;BME280;51070;52.236;-0.892;2023-02-01T01:11:15;101372.37;;;5.02;79.36
62928;BME280;51070;52.236;-0.892;2023-02-01T01:13:42;101362.53;;;5.04;79.35
62928;BME280;51070;52.236;-0.892;2023-02-01T01:16:10;101357.36;;;5.06;79.35
62928;BME280;51070;52.236;-0.892;2023-02-01T01:18:36;101359.16;;;5.07;79.39
62928;BME280;51070;52.236;-0.892;2023-02-01T01:21:04;101363.62;;;5.07;79.28
62928;BME280;51070;52.236;-0.892;2023-02-01T01:23:30;101370.64;;;5.07;79.36
62928;BME280;51070;52.236;-0.892;2023-02-01T01:25:55;101373.50;;;5.06;79.60
62928;BME280;51070;52.236;-0.892;2023-02-01T01:28:21;101375.84;;;5.05;79.71
62928;BME280;51070;52.236;-0.892;2023-02-01T01:30:47;101377.34;;;5.04;79.70
62928;BME280;51070;52.236;-0.892;2023-02-01T01:33:13;101375.38;;;5.06;79.74
62928;BME280;51070;52.236;-0.892;2023-02-01T01:35:38;101378.35;;;5.07;79.55
62928;BME280;51070;52.236;-0.892;2023-02-01T01:38:04;101375.31;;;5.08;79.63
62928;BME280;51070;52.236;-0.892;2023-02-01T01:40:30;101373.81;;;5.08;79.68
62928;BME280;51070;52.236;-0.892;2023-02-01T01:42:56;101374.02;;;5.09;79.83
62928;BME280;51070;52.236;-0.892;2023-02-01T01:45:30;101374.16;;;5.09;79.65
62928;BME280;51070;52.236;-0.892;2023-02-01T01:50:35;101373.69;;;5.06;79.69
62928;BME280;51070;52.236;-0.892;2023-02-01T01:53:05;101366.21;;;5.04;79.84
62928;BME280;51070;52.236;-0.892;2023-02-01T01:55:36;101364.85;;;5.05;79.68
62928;BME280;51070;52.236;-0.892;2023-02-01T01:58:14;101369.16;;;5.05;80.05
62928;BME280;51070;52.236;-0.892;2023-02-01T02:00:41;101367.09;;;5.08;80.10
62928;BME280;51070;52.236;-0.892;2023-02-01T02:03:18;101368.63;;;5.11;80.05
62928;BME280;51070;52.236;-0.892;2023-02-01T02:05:48;101361.83;;;5.11;80.04
62928;BME280;51070;52.236;-0.892;2023-02-01T02:08:17;101354.95;;;5.11;79.92
62928;BME280;51070;52.236;-0.892;2023-02-01T02:10:43;101352.94;;;5.09;79.92
62928;BME280;51070;52.236;-0.892;2023-02-01T02:13:34;101351.11;;;5.07;80.22
62928;BME280;51070;52.236;-0.892;2023-02-01T02:18:54;101349.71;;;5.01;80.25
62928;BME280;51070;52.236;-0.892;2023-02-01T02:21:50;101357.09;;;4.99;80.38
62928;BME280;51070;52.236;-0.892;2023-02-01T02:32:53;101339.52;;;5.00;80.81
62928;BME280;51070;52.236;-0.892;2023-02-01T02:35:59;101341.19;;;4.99;80.77
62928;BME280;51070;52.236;-0.892;2023-02-01T02:47:48;101354.35;;;4.88;81.31
62928;BME280;51070;52.236;-0.892;2023-02-01T02:50:35;101362.52;;;4.85;81.34
62928;BME280;51070;52.236;-0.892;2023-02-01T02:54:12;101365.11;;;4.83;81.62
62928;BME280;51070;52.236;-0.892;2023-02-01T02:56:49;101365.16;;;4.83;81.89
62928;BME280;51070;52.236;-0.892;2023-02-01T02:59:34;101366.28;;;4.85;81.91
62928;BME280;51070;52.236;-0.892;2023-02-01T03:02:20;101363.61;;;4.86;81.95
62928;BME280;51070;52.236;-0.892;2023-02-01T03:05:06;101365.51;;;4.89;81.92
62928;BME280;51070;52.236;-0.892;2023-02-01T03:10:44;101360.66;;;4.88;81.98
62928;BME280;51070;52.236;-0.892;2023-02-01T03:16:28;101360.31;;;4.85;82.09
62928;BME280;51070;52.236;-0.892;2023-02-01T03:21:17;101364.20;;;4.77;82.30
62928;BME280;51070;52.236;-0.892;2023-02-01T03:23:45;101368.45;;;4.74;82.26
62928;BME280;51070;52.236;-0.892;2023-02-01T03:26:14;101365.70;;;4.71;82.44
62928;BME280;51070;52.236;-0.892;2023-02-01T03:28:49;101368.16;;;4.69;82.56
62928;BME280;51070;52.236;-0.892;2023-02-01T03:31:16;101372.40;;;4.69;82.89
62928;BME280;51070;52.236;-0.892;2023-02-01T03:33:41;101377.70;;;4.69;82.87
62928;BME280;51070;52.236;-0.892;2023-02-01T03:39:06;101375.23;;;4.70;83.21
62928;BME280;51070;52.236;-0.892;2023-02-01T03:44:32;101374.56;;;4.73;83.37
62928;BME280;51070;52.236;-0.892;2023-02-01T03:47:06;101371.69;;;4.73;83.27
62928;BME280;51070;52.236;-0.892;2023-02-01T03:49:36;101371.64;;;4.73;83.29
62928;BME280;51070;52.236;-0.892;2023-02-01T03:52:05;101367.29;;;4.72;83.61
62928;BME280;51070;52.236;-0.892;2023-02-01T03:54:32;101363.44;;;4.71;83.63
62928;BME280;51070;52.236;-0.892;2023-02-01T03:57:05;101358.15;;;4.71;83.67
62928;BME280;51070;52.236;-0.892;2023-02-01T03:59:32;101354.19;;;4.71;83.38
62928;BME280;51070;52.236;-0.892;2023-02-01T04:01:58;101354.36;;;4.71;83.30
62928;BME280;51070;52.236;-0.892;2023-02-01T04:04:23;101355.90;;;4.71;83.50
62928;BME280;51070;52.236;-0.892;2023-02-01T04:06:50;101346.70;;;4.71;83.30
62928;BME280;51070;52.236;-0.892;2023-02-01T04:09:15;101348.36;;;4.73;83.70
62928;BME280;51070;52.236;-0.892;2023-02-01T04:11:42;101338.19;;;4.74;83.63
62928;BME280;51070;52.236;-0.892;2023-02-01T04:14:07;101327.77;;;4.75;83.30
62928;BME280;51070;52.236;-0.892;2023-02-01T04:16:33;101318.52;;;4.75;83.44
62928;BME280;51070;52.236;-0.892;2023-02-01T04:18:58;101321.25;;;4.74;83.39
62928;BME280;51070;52.236;-0.892;2023-02-01T04:21:25;101324.35;;;4.75;83.53
62928;BME280;51070;52.236;-0.892;2023-02-01T04:23:51;101318.08;;;4.76;83.43
62928;BME280;51070;52.236;-0.892;2023-02-01T04:26:17;101316.48;;;4.77;83.55
62928;BME280;51070;52.236;-0.892;2023-02-01T04:28:44;101315.30;;;4.81;83.45
62928;BME280;51070;52.236;-0.892;2023-02-01T04:31:09;101313.27;;;4.83;83.36
62928;BME280;51070;52.236;-0.892;2023-02-01T04:33:35;101312.36;;;4.85;83.31
62928;BME280;51070;52.236;-0.892;2023-02-01T04:36:00;101313.77;;;4.86;83.33
62928;BME280;51070;52.236;-0.892;2023-02-01T04:38:26;101316.20;;;4.87;83.34
62928;BME280;51070;52.236;-0.892;2023-02-01T04:40:54;101312.93;;;4.86;83.21
62928;BME280;51070;52.236;-0.892;2023-02-01T04:43:19;101314.16;;;4.87;83.41
62928;BME280;51070;52.236;-0.892;2023-02-01T04:45:49;101314.86;;;4.87;83.18
62928;BME280;51070;52.236;-0.892;2023-02-01T04:48:16;101323.27;;;4.87;83.10
62928;BME280;51070;52.236;-0.892;2023-02-01T04:50:44;101324.03;;;4.88;83.36
62928;BME280;51070;52.236;-0.892;2023-02-01T04:53:13;101327.54;;;4.89;83.27
62928;BME280;51070;52.236;-0.892;2023-02-01T04:55:39;101329.04;;;4.92;83.18
62928;BME280;51070;52.236;-0.892;2023-02-01T04:58:05;101333.27;;;4.93;83.01
62928;BME280;51070;52.236;-0.892;2023-02-01T05:00:30;101336.36;;;4.94;82.89
62928;BME280;51070;52.236;-0.892;2023-02-01T05:02:55;101338.29;;;4.94;82.72
62928;BME280;51070;52.236;-0.892;2023-02-01T05:05:21;101343.96;;;4.94;82.91
62928;BME280;51070;52.236;-0.892;2023-02-01T05:07:46;101349.41;;;4.94;82.79
62928;BME280;51070;52.236;-0.892;2023-02-01T05:10:12;101352.05;;;4.93;82.85
62928;BME280;51070;52.236;-0.892;2023-02-01T05:12:37;101358.66;;;4.92;82.77
62928;BME280;51070;52.236;-0.892;2023-02-01T05:15:21;101357.84;;;4.92;82.80
62928;BME280;51070;52.236;-0.892;2023-02-01T05:17:47;101354.96;;;4.92;82.75
62928;BME280;51070;52.236;-0.892;2023-02-01T05:20:12;101349.08;;;4.94;82.81
62928;BME280;51070;52.236;-0.892;2023-02-01T05:22:38;101352.14;;;4.96;82.85
62928;BME280;51070;52.236;-0.892;2023-02-01T05:25:04;101349.46;;;4.98;82.74
62928;BME280;51070;52.236;-0.892;2023-02-01T05:27:30;101353.57;;;4.97;82.58
62928;BME280;51070;52.236;-0.892;2023-02-01T05:29:55;101345.48;;;4.97;82.54
62928;BME280;51070;52.236;-0.892;2023-02-01T05:32:21;101341.98;;;4.95;82.64
62928;BME280;51070;52.236;-0.892;2023-02-01T05:34:46;101332.58;;;4.93;82.55
62928;BME280;51070;52.236;-0.892;2023-02-01T05:37:12;101331.09;;;4.92;82.62
62928;BME280;51070;52.236;-0.892;2023-02-01T05:39:37;101328.27;;;4.90;82.65
62928;BME280;51070;52.236;-0.892;2023-02-01T05:42:03;101328.30;;;4.88;82.64
62928;BME280;51070;52.236;-0.892;2023-02-01T05:44:28;101323.16;;;4.88;83.07
62928;BME280;51070;52.236;-0.892;2023-02-01T05:46:54;101315.70;;;4.89;83.06
62928;BME280;51070;52.236;-0.892;2023-02-01T05:49:19;101312.14;;;4.90;83.03
62928;BME280;51070;52.236;-0.892;2023-02-01T05:51:45;101316.98;;;4.90;83.28
62928;BME280;51070;52.236;-0.892;2023-02-01T05:54:11;101320.60;;;4.91;83.20
62928;BME280;51070;52.236;-0.892;2023-02-01T05:56:36;101319.63;;;4.92;83.22
62928;BME280;51070;52.236;-0.892;2023-02-01T05:59:02;101319.48;;;4.92;83.17
62928;BME280;51070;52.236;-0.892;2023-02-01T06:01:27;101321.47;;;4.91;83.02
62928;BME280;51070;52.236;-0.892;2023-02-01T06:03:52;101327.73;;;4.90;83.03
62928;BME280;51070;52.236;-0.892;2023-02-01T06:06:18;101335.08;;;4.89;83.21
62928;BME280;51070;52.236;-0.892;2023-02-01T06:08:45;101334.27;;;4.90;83.04
62928;BME280;51070;52.236;-0.892;2023-02-01T06:11:11;101333.98;;;4.91;83.05
62928;BME280;51070;52.236;-0.892;2023-02-01T06:13:38;101337.49;;;4.93;83.23
62928;BME280;51070;52.236;-0.892;2023-02-01T06:16:04;101335.45;;;4.95;83.21
62928;BME280;51070;52.236;-0.892;2023-02-01T06:18:32;101337.75;;;4.96;83.16
62928;BME280;51070;52.236;-0.892;2023-02-01T06:20:59;101337.45;;;4.97;83.23
62928;BME280;51070;52.236;-0.892;2023-02-01T06:23:29;101339.13;;;4.97;83.16
62928;BME280;51070;52.236;-0.892;2023-02-01T06:26:07;101338.05;;;4.96;83.01
62928;BME280;51070;52.236;-0.892;2023-02-01T06:28:33;101337.73;;;4.94;83.07
62928;BME280;51070;52.236;-0.892;2023-02-01T06:31:05;101338.48;;;4.92;83.02
62928;BME280;51070;52.236;-0.892;2023-02-01T06:33:32;101337.53;;;4.90;83.17
62928;BME280;51070;52.236;-0.892;2023-02-01T06:36:00;101334.27;;;4.90;83.23
62928;BME280;51070;52.236;-0.892;2023-02-01T06:38:26;101338.13;;;4.92;83.28
62928;BME280;51070;52.236;-0.892;2023-02-01T06:40:53;101339.54;;;4.92;83.40
62928;BME280;51070;52.236;-0.892;2023-02-01T06:43:19;101340.02;;;4.94;83.45
62928;BME280;51070;52.236;-0.892;2023-02-01T06:45:44;101343.20;;;4.96;83.40
62928;BME280;51070;52.236;-0.892;2023-02-01T06:48:09;101345.30;;;4.97;83.39
62928;BME280;51070;52.236;-0.892;2023-02-01T06:50:35;101343.06;;;4.97;83.48
62928;BME280;51070;52.236;-0.892;2023-02-01T06:53:00;101346.67;;;4.96;83.41
62928;BME280;51070;52.236;-0.892;2023-02-01T06:55:26;101343.67;;;4.95;83.39
62928;BME280;51070;52.236;-0.892;2023-02-01T06:57:55;101343.26;;;4.94;83.53
62928;BME280;51070;52.236;-0.892;2023-02-01T07:00:22;101338.46;;;4.91;83.61
62928;BME280;51070;52.236;-0.892;2023-02-01T07:02:48;101334.73;;;4.90;83.55
62928;BME280;51070;52.236;-0.892;2023-02-01T07:05:14;101335.88;;;4.89;83.71
62928;BME280;51070;52.236;-0.892;2023-02-01T07:07:40;101346.53;;;4.89;83.81
62928;BME280;51070;52.236;-0.892;2023-02-01T07:10:06;101353.41;;;4.90;83.85
62928;BME280;51070;52.236;-0.892;2023-02-01T07:12:31;101356.71;;;4.90;83.89
62928;BME280;51070;52.236;-0.892;2023-02-01T07:14:57;101365.73;;;4.92;83.99
62928;BME280;51070;52.236;-0.892;2023-02-01T07:17:23;101372.67;;;4.94;84.19
62928;BME280;51070;52.236;-0.892;2023-02-01T07:19:48;101374.70;;;4.93;84.02
62928;BME280;51070;52.236;-0.892;2023-02-01T07:22:17;101378.23;;;4.92;84.13
62928;BME280;51070;52.236;-0.892;2023-02-01T07:24:42;101379.36;;;4.91;84.05
62928;BME280;51070;52.236;-0.892;2023-02-01T07:27:08;101386.27;;;4.89;84.14
62928;BME280;51070;52.236;-0.892;2023-02-01T07:29:33;101389.58;;;4.88;84.21
62928;BME280;51070;52.236;-0.892;2023-02-01T07:31:59;101388.30;;;4.86;84.28
62928;BME280;51070;52.236;-0.892;2023-02-01T07:34:25;101395.80;;;4.86;84.43
62928;BME280;51070;52.236;-0.892;2023-02-01T07:36:51;101400.67;;;4.87;84.49
62928;BME280;51070;52.236;-0.892;2023-02-01T07:39:16;101404.35;;;4.88;84.66
62928;BME280;51070;52.236;-0.892;2023-02-01T07:41:42;101404.98;;;4.90;84.66
62928;BME280;51070;52.236;-0.892;2023-02-01T07:44:07;101408.30;;;4.91;84.52
62928;BME280;51070;52.236;-0.892;2023-02-01T07:46:32;101409.92;;;4.92;84.57
62928;BME280;51070;52.236;-0.892;2023-02-01T07:48:58;101409.96;;;4.93;84.62
62928;BME280;51070;52.236;-0.892;2023-02-01T07:51:23;101410.95;;;4.92;84.33
62928;BME280;51070;52.236;-0.892;2023-02-01T07:53:49;101405.27;;;4.92;84.22
62928;BME280;51070;52.236;-0.892;2023-02-01T07:56:17;101400.29;;;4.91;84.22
62928;BME280;51070;52.236;-0.892;2023-02-01T07:58:43;101390.79;;;4.90;84.48
62928;BME280;51070;52.236;-0.892;2023-02-01T08:01:19;101395.86;;;4.89;84.52
62928;BME280;51070;52.236;-0.892;2023-02-01T08:03:54;101394.86;;;4.90;84.50
62928;BME280;51070;52.236;-0.892;2023-02-01T08:06:21;101396.52;;;4.91;84.65
62928;BME280;51070;52.236;-0.892;2023-02-01T08:08:48;101401.38;;;4.95;84.65
62928;BME280;51070;52.236;-0.892;2023-02-01T08:11:14;101401.81;;;4.99;84.50
62928;BME280;51070;52.236;-0.892;2023-02-01T08:13:40;101398.08;;;5.02;84.53
62928;BME280;51070;52.236;-0.892;2023-02-01T08:16:08;101389.61;;;5.04;84.42
62928;BME280;51070;52.236;-0.892;2023-02-01T08:18:35;101379.13;;;5.06;84.45
62928;BME280;51070;52.236;-0.892;2023-02-01T08:21:07;101372.08;;;5.08;84.53
62928;BME280;51070;52.236;-0.892;2023-02-01T08:23:34;101367.55;;;5.10;84.30
62928;BME280;51070;52.236;-0.892;2023-02-01T08:26:14;101364.35;;;5.11;84.52
62928;BME280;51070;52.236;-0.892;2023-02-01T08:28:43;101366.91;;;5.13;84.51
62928;BME280;51070;52.236;-0.892;2023-02-01T08:31:14;101366.14;;;5.17;84.52
62928;BME280;51070;52.236;-0.892;2023-02-01T08:33:41;101369.17;;;5.22;84.51
62928;BME280;51070;52.236;-0.892;2023-02-01T08:36:09;101367.64;;;5.27;84.36
62928;BME280;51070;52.236;-0.892;2023-02-01T08:38:38;101370.56;;;5.32;84.39
62928;BME280;51070;52.236;-0.892;2023-02-01T08:41:11;101374.38;;;5.38;84.21
62928;BME280;51070;52.236;-0.892;2023-02-01T08:43:37;101374.27;;;5.42;84.04
62928;BME280;51070;52.236;-0.892;2023-02-01T08:46:04;101377.07;;;5.46;83.97
62928;BME280;51070;52.236;-0.892;2023-02-01T08:48:29;101387.13;;;5.47;83.87
62928;BME280;51070;52.236;-0.892;2023-02-01T08:50:55;101381.63;;;5.50;83.75
62928;BME280;51070;52.236;-0.892;2023-02-01T08:53:21;101382.36;;;5.57;83.56
62928;BME280;51070;52.236;-0.892;2023-02-01T08:55:46;101385.14;;;5.63;83.59
62928;BME280;51070;52.236;-0.892;2023-02-01T08:58:12;101387.25;;;5.69;83.45
62928;BME280;51070;52.236;-0.892;2023-02-01T09:00:43;101388.23;;;5.85;83.22
62928;BME280;51070;52.236;-0.892;2023-02-01T09:03:11;101390.45;;;5.98;82.81
62928;BME280;51070;52.236;-0.892;2023-02-01T09:05:37;101390.05;;;6.05;82.52
62928;BME280;51070;52.236;-0.892;2023-02-01T09:08:04;101392.98;;;6.14;82.23
62928;BME280;51070;52.236;-0.892;2023-02-01T09:10:30;101400.20;;;6.25;81.99
62928;BME280;51070;52.236;-0.892;2023-02-01T09:12:55;101402.79;;;6.41;81.75
62928;BME280;51070;52.236;-0.892;2023-02-01T09:15:21;101400.99;;;6.50;81.45
62928;BME280;51070;52.236;-0.892;2023-02-01T09:17:46;101400.88;;;6.57;81.09
62928;BME280;51070;52.236;-0.892;2023-02-01T09:20:12;101403.95;;;6.65;80.86
62928;BME280;51070;52.236;-0.892;2023-02-01T09:22:38;101405.84;;;6.74;80.45
62928;BME280;51070;52.236;-0.892;2023-02-01T09:25:05;101409.79;;;6.83;80.06
62928;BME280;51070;52.236;-0.892;2023-02-01T09:27:30;101403.98;;;6.93;79.75
62928;BME280;51070;52.236;-0.892;2023-02-01T09:29:56;101406.38;;;7.04;79.28
62928;BME280;51070;52.236;-0.892;2023-02-01T09:32:22;101406.36;;;7.16;78.95
62928;BME280;51070;52.236;-0.892;2023-02-01T09:34:50;101405.67;;;7.25;78.41
62928;BME280;51070;52.236;-0.892;2023-02-01T09:37:15;101402.95;;;7.29;78.00
62928;BME280;51070;52.236;-0.892;2023-02-01T09:39:41;101405.82;;;7.25;77.98
62928;BME280;51070;52.236;-0.892;2023-02-01T09:42:26;101410.03;;;7.21;77.96
62928;BME280;51070;52.236;-0.892;2023-02-01T09:47:47;101410.95;;;7.15;78.27
62928;BME280;51070;52.236;-0.892;2023-02-01T09:50:18;101411.83;;;7.15;78.10
62928;BME280;51070;52.236;-0.892;2023-02-01T09:52:54;101416.13;;;7.15;78.10
62928;BME280;51070;52.236;-0.892;2023-02-01T09:55:40;101417.33;;;7.15;78.07
62928;BME280;51070;52.236;-0.892;2023-02-01T10:00:59;101417.83;;;7.19;78.29
62928;BME280;51070;52.236;-0.892;2023-02-01T10:03:35;101427.22;;;7.20;78.00
62928;BME280;51070;52.236;-0.892;2023-02-01T10:06:16;101424.66;;;7.24;78.01
62928;BME280;51070;52.236;-0.892;2023-02-01T10:09:11;101424.27;;;7.29;77.85
62928;BME280;51070;52.236;-0.892;2023-02-01T10:14:34;101429.25;;;7.44;77.55
62928;BME280;51070;52.236;-0.892;2023-02-01T10:25:17;101429.23;;;7.62;76.61
62928;BME280;51070;52.236;-0.892;2023-02-01T10:27:48;101429.25;;;7.65;76.47
62928;BME280;51070;52.236;-0.892;2023-02-01T10:30:23;101430.94;;;7.68;76.65
62928;BME280;51070;52.236;-0.892;2023-02-01T10:32:55;101431.18;;;7.76;76.30
62928;BME280;51070;52.236;-0.892;2023-02-01T10:35:27;101442.31;;;8.00;75.89
62928;BME280;51070;52.236;-0.892;2023-02-01T10:37:54;101438.14;;;8.21;74.72
62928;BME280;51070;52.236;-0.892;2023-02-01T10:40:23;101440.96;;;8.49;74.35
62928;BME280;51070;52.236;-0.892;2023-02-01T10:42:51;101448.27;;;8.76;73.66
62928;BME280;51070;52.236;-0.892;2023-02-01T10:45:21;101447.40;;;9.18;72.35
62928;BME280;51070;52.236;-0.892;2023-02-01T10:47:52;101448.58;;;9.56;71.16
62928;BME280;51070;52.236;-0.892;2023-02-01T10:50:24;101455.05;;;9.87;69.91
62928;BME280;51070;52.236;-0.892;2023-02-01T10:52:58;101458.92;;;10.03;68.86
62928;BME280;51070;52.236;-0.892;2023-02-01T10:58:07;101465.70;;;10.41;68.83
62928;BME280;51070;52.236;-0.892;2023-02-01T11:01:01;101470.23;;;10.58;67.42
62928;BME280;51070;52.236;-0.892;2023-02-01T11:06:37;101474.27;;;10.51;66.54
62928;BME280;51070;52.236;-0.892;2023-02-01T11:14:39;101470.64;;;10.17;67.13
62928;BME280;51070;52.236;-0.892;2023-02-01T11:19:47;101462.10;;;9.83;67.56
62928;BME280;51070;52.236;-0.892;2023-02-01T11:22:20;101471.64;;;9.69;67.92
62928;BME280;51070;52.236;-0.892;2023-02-01T11:24:46;101469.65;;;9.56;67.88
62928;BME280;51070;52.236;-0.892;2023-02-01T11:27:17;101460.09;;;9.44;68.36
62928;BME280;51070;52.236;-0.892;2023-02-01T11:29:47;101462.36;;;9.34;68.77
62928;BME280;51070;52.236;-0.892;2023-02-01T11:32:17;101469.98;;;9.27;69.12
62928;BME280;51070;52.236;-0.892;2023-02-01T11:34:53;101471.48;;;9.23;69.28
62928;BME280;51070;52.236;-0.892;2023-02-01T11:37:27;101468.26;;;9.21;69.43
62928;BME280;51070;52.236;-0.892;2023-02-01T11:39:59;101469.52;;;9.19;69.76
62928;BME280;51070;52.236;-0.892;2023-02-01T11:42:27;101464.04;;;9.16;69.91
62928;BME280;51070;52.236;-0.892;2023-02-01T11:45:17;101465.59;;;9.12;70.14
62928;BME280;51070;52.236;-0.892;2023-02-01T11:47:43;101460.61;;;9.09;70.45
62928;BME280;51070;52.236;-0.892;2023-02-01T11:50:19;101456.27;;;9.08;70.60
62928;BME280;51070;52.236;-0.892;2023-02-01T11:53:06;101452.86;;;9.13;70.54
62928;BME280;51070;52.236;-0.892;2023-02-01T11:55:55;101443.85;;;9.19;70.58
62928;BME280;51070;52.236;-0.892;2023-02-01T12:04:01;101438.78;;;9.39;70.58
62928;BME280;51070;52.236;-0.892;2023-02-01T12:09:17;101435.55;;;9.58;70.42
62928;BME280;51070;52.236;-0.892;2023-02-01T12:12:26;101431.41;;;9.65;70.20
62928;BME280;51070;52.236;-0.892;2023-02-01T12:21:14;101426.75;;;9.68;69.79
62928;BME280;51070;52.236;-0.892;2023-02-01T12:28:50;101423.60;;;9.60;70.12
62928;BME280;51070;52.236;-0.892;2023-02-01T12:31:29;101419.59;;;9.56;70.08
62928;BME280;51070;52.236;-0.892;2023-02-01T12:42:43;101418.92;;;9.56;70.54
62928;BME280;51070;52.236;-0.892;2023-02-01T12:45:20;101416.38;;;9.64;70.17
62928;BME280;51070;52.236;-0.892;2023-02-01T12:50:52;101412.81;;;9.85;70.00
62928;BME280;51070;52.236;-0.892;2023-02-01T12:56:10;101410.56;;;9.84;69.71
62928;BME280;51070;52.236;-0.892;2023-02-01T12:58:40;101414.19;;;9.80;69.89
62928;BME280;51070;52.236;-0.892;2023-02-01T13:01:27;101412.73;;;9.75;70.00
62928;BME280;51070;52.236;-0.892;2023-02-01T13:04:05;101411.27;;;9.70;70.17
62928;BME280;51070;52.236;-0.892;2023-02-01T13:06:47;101417.00;;;9.67;70.17
62928;BME280;51070;52.236;-0.892;2023-02-01T13:11:44;101407.28;;;9.58;70.35
62928;BME280;51070;52.236;-0.892;2023-02-01T13:17:15;101404.17;;;9.51;70.64
62928;BME280;51070;52.236;-0.892;2023-02-01T13:22:31;101397.56;;;9.46;71.03
62928;BME280;51070;52.236;-0.892;2023-02-01T13:25:02;101397.88;;;9.46;70.94
62928;BME280;51070;52.236;-0.892;2023-02-01T13:27:29;101395.58;;;9.48;71.14
62928;BME280;51070;52.236;-0.892;2023-02-01T13:30:13;101395.15;;;9.54;71.20
62928;BME280;51070;52.236;-0.892;2023-02-01T13:32:54;101396.75;;;9.62;70.67
62928;BME280;51070;52.236;-0.892;2023-02-01T13:43:36;101397.27;;;9.65;70.69
62928;BME280;51070;52.236;-0.892;2023-02-01T13:46:09;101391.77;;;9.66;70.65
62928;BME280;51070;52.236;-0.892;2023-02-01T13:48:52;101394.20;;;9.70;70.79
62928;BME280;51070;52.236;-0.892;2023-02-01T13:51:42;101401.52;;;9.79;70.74
62928;BME280;51070;52.236;-0.892;2023-02-01T13:54:41;101398.38;;;9.86;70.58
62928;BME280;51070;52.236;-0.892;2023-02-01T13:57:15;101393.72;;;9.93;70.55
62928;BME280;51070;52.236;-0.892;2023-02-01T13:59:52;101390.61;;;9.97;70.02
62928;BME280;51070;52.236;-0.892;2023-02-01T14:05:06;101393.19;;;10.08;69.61
62928;BME280;51070;52.236;-0.892;2023-02-01T14:07:33;101388.35;;;10.12;69.92
62928;BME280;51070;52.236;-0.892;2023-02-01T14:13:49;101387.62;;;10.34;68.99
62928;BME280;51070;52.236;-0.892;2023-02-01T14:21:33;101392.91;;;10.52;67.35
62928;BME280;51070;52.236;-0.892;2023-02-01T14:29:36;101386.15;;;10.68;67.15
62928;BME280;51070;52.236;-0.892;2023-02-01T14:32:18;101385.58;;;10.75;67.12
62928;BME280;51070;52.236;-0.892;2023-02-01T14:47:51;101401.70;;;10.43;67.37
62928;BME280;51070;52.236;-0.892;2023-02-01T14:53:05;101405.69;;;10.36;67.13
62928;BME280;51070;52.236;-0.892;2023-02-01T15:03:50;101400.02;;;10.22;67.14
62928;BME280;51070;52.236;-0.892;2023-02-01T15:06:31;101402.84;;;10.16;67.29
62928;BME280;51070;52.236;-0.892;2023-02-01T15:09:02;101399.48;;;10.14;67.47
62928;BME280;51070;52.236;-0.892;2023-02-01T15:11:28;101403.77;;;10.13;67.42
62928;BME280;51070;52.236;-0.892;2023-02-01T15:13:54;101398.52;;;10.12;67.64
62928;BME280;51070;52.236;-0.892;2023-02-01T15:16:25;101401.64;;;10.12;67.83
62928;BME280;51070;52.236;-0.892;2023-02-01T15:19:07;101404.24;;;10.13;67.95
62928;BME280;51070;52.236;-0.892;2023-02-01T15:21:42;101409.59;;;10.12;67.83
62928;BME280;51070;52.236;-0.892;2023-02-01T15:24:13;101404.55;;;10.11;68.00
62928;BME280;51070;52.236;-0.892;2023-02-01T15:26:39;101405.67;;;10.10;68.01
62928;BME280;51070;52.236;-0.892;2023-02-01T15:29:05;101406.09;;;10.07;67.77
62928;BME280;51070;52.236;-0.892;2023-02-01T15:31:39;101401.91;;;10.03;68.18
62928;BME280;51070;52.236;-0.892;2023-02-01T15:34:06;101400.86;;;9.99;68.39
62928;BME280;51070;52.236;-0.892;2023-02-01T15:36:32;101402.80;;;9.96;68.39
62928;BME280;51070;52.236;-0.892;2023-02-01T15:39:18;101404.89;;;9.92;68.53
62928;BME280;51070;52.236;-0.892;2023-02-01T15:41:58;101408.06;;;9.90;68.74
62928;BME280;51070;52.236;-0.892;2023-02-01T15:44:43;101410.73;;;9.88;68.73